Home   Weather   Australia   Canberra   Past weeks
Flag for Australia

Past Weather in Canberra, Australian Capital Territory, Australia — Yesterday and Last 2 Weeks

Currently: 55 °F. Rain. Mostly cloudy. (Weather station: Canberra Airport, Australia). See more current weather

Past Weather in Canberra — Graph

°F

Canberra Temperature Yesterday

Maximum temperature yesterday: 64 °F (at 12:30 pm)
Minimum temperature yesterday: 37 °F (at 1:00 am)
Average temperature yesterday: 53 °F

High & Low Weather Summary for the Past Weeks

 TemperatureHumidityPressure
High66 °F (May 17, 3:30 pm)100% (May 16, 4:15 am)30.45 "Hg (May 16, 4:15 am)
Low25 °F (May 28, 6:30 am)35% (May 28, 3:00 pm)29.98 "Hg (May 31, 3:30 am)
Average44 °F80%30.29 "Hg
* Reported May 16 4:15 am — May 31 4:00 am, Canberra. Weather by CustomWeather, © 2024

Note: Actual official high and low records may vary slightly from our data, if they occured in-between our weather recording intervals... More about our weather records

Canberra Weather History for the Previous 24 Hours

Scroll right to see more
 ConditionsComfort  
Time TempWeatherWind HumidityBarometerVisibility
4:00 am
Fri, May 31
57 °FLight rain. Overcast.23 mph88%29.98 "HgN/A
3:30 am57 °FLight rain. Mostly cloudy.21 mph82%29.98 "HgN/A
3:00 am57 °FLight rain. Overcast.24 mph82%30.01 "HgN/A
2:30 am59 °FLight rain. Partly cloudy.25 mph77%30.01 "HgN/A
2:01 am61 °FLight rain. Partly cloudy.22 mph68%30.01 "HgN/A
1:32 am59 °FPartly cloudy.17 mph68%30.01 "HgN/A
1:00 am59 °FClear.14 mph68%30.01 "HgN/A
12:30 am59 °FPassing clouds.15 mph68%30.04 "HgN/A
12:00 am57 °FClear.14 mph72%30.07 "HgN/A
11:00 pm
Thu, May 30
59 °FClear.17 mph68%30.07 "HgN/A
10:30 pm59 °FClear.18 mph68%30.09 "HgN/A
10:00 pm59 °FClear.18 mph72%30.09 "HgN/A
9:30 pm59 °FClear.16 mph68%30.09 "HgN/A
9:00 pm59 °FClear.17 mph72%30.12 "HgN/A
8:30 pm59 °FClear.15 mph72%30.12 "HgN/A
8:00 pm59 °FClear.12 mph72%30.12 "HgN/A
7:30 pm57 °FClear.8 mph77%30.12 "HgN/A
7:00 pm59 °FPassing clouds.13 mph72%30.12 "HgN/A
6:30 pm61 °FPassing clouds.15 mph68%30.12 "HgN/A
6:00 pm59 °FClear.10 mph72%30.12 "HgN/A
5:30 pm59 °FPassing clouds.9 mph68%30.12 "HgN/A
5:00 pm61 °FMostly cloudy.12 mph68%30.12 "HgN/A
4:30 pm61 °FPartly sunny.14 mph68%30.12 "HgN/A
4:00 pm63 °FScattered clouds.13 mph64%30.12 "HgN/A
3:00 pm63 °FScattered clouds.15 mph64%30.15 "HgN/A
2:30 pm63 °FOvercast.16 mph64%30.15 "HgN/A
2:00 pm63 °FMostly cloudy.16 mph64%30.15 "HgN/A
1:30 pm63 °FPartly sunny.21 mph64%30.18 "HgN/A
1:00 pm63 °FScattered clouds.15 mph64%30.18 "HgN/A
12:30 pm64 °FScattered clouds.20 mph60%30.21 "HgN/A
12:00 pm63 °FPartly sunny.17 mph59%30.21 "HgN/A
11:30 am63 °FScattered clouds.20 mph59%30.24 "HgN/A
11:00 am63 °FSunny.20 mph56%30.24 "HgN/A
10:30 am61 °FScattered clouds.16 mph59%30.27 "HgN/A
10:00 am59 °FScattered clouds.6 mph63%30.27 "HgN/A
9:30 am55 °FOvercast.No wind72%30.30 "HgN/A
9:00 am48 °FOvercast.3 mph100%30.30 "HgN/A
8:30 am45 °FOvercast.No wind100%30.30 "HgN/A
8:00 am41 °FPartly sunny.No wind93%30.30 "HgN/A
7:30 am37 °FSunny.3 mph100%30.30 "HgN/A
7:00 am39 °FClear.No wind100%30.27 "HgN/A
6:30 am39 °FPassing clouds.No wind100%30.27 "HgN/A
5:30 am41 °FPassing clouds.No wind100%30.27 "HgN/A
5:00 am43 °FOvercast.No wind100%30.27 "HgN/A
Weather by CustomWeather, © 2024

See weather overview